Time;durP1;ratioP1;P1;durP2;ratioP2;P2;SDS_P1;SDS_P2;PMS_P1;PMS_P2;Temp;Humidity;BMP_temperature;BMP_pressure;BME280_temperature;BME280_humidity;BME280_pressure;Samples;Min_cycle;Max_cycle;Signal;HPM_P1;HPM_P2
2023/12/23 00:00:18;;;;;;;10.57;1.43;;;;;;;9.66;85.29;101235.81;5052369;28;20108;-84
2023/12/23 00:02:43;;;;;;;14.32;1.58;;;;;;;9.65;85.27;101227.94;5052891;28;20489;-84
2023/12/23 00:05:09;;;;;;;12.03;1.63;;;;;;;9.61;85.18;101238.38;5053081;28;20033;-84
2023/12/23 00:07:35;;;;;;;14.10;1.63;;;;;;;9.59;85.42;101228.72;5052421;28;20116;-84
2023/12/23 00:10:04;;;;;;;12.23;1.75;;;;;;;9.57;85.63;101228.66;5052396;28;20056;-84
2023/12/23 00:12:30;;;;;;;13.93;1.58;;;;;;;9.56;85.37;101226.91;5052343;28;20158;-84
2023/12/23 00:14:55;;;;;;;13.03;1.70;;;;;;;9.55;85.44;101226.91;5052158;28;20124;-84
2023/12/23 00:17:21;;;;;;;15.27;2.33;;;;;;;9.55;85.62;101224.25;5052498;28;20520;-84
2023/12/23 00:19:46;;;;;;;23.10;5.93;;;;;;;9.57;85.74;101214.66;5052361;28;20086;-84
2023/12/23 00:22:12;;;;;;;16.77;2.13;;;;;;;9.56;85.64;101212.88;5052510;28;20025;-84
2023/12/23 00:24:37;;;;;;;23.92;4.40;;;;;;;9.55;85.44;101211.13;5052028;28;20036;-84
2023/12/23 00:27:03;;;;;;;11.80;1.60;;;;;;;9.54;85.49;101209.34;5052002;28;20126;-84
2023/12/23 00:29:29;;;;;;;13.33;2.63;;;;;;;9.55;85.82;101212.00;5051713;28;20435;-83
2023/12/23 00:31:54;;;;;;;14.50;1.52;;;;;;;9.54;85.58;101204.09;5051924;28;20456;-84
2023/12/23 00:34:20;;;;;;;14.77;1.40;;;;;;;9.52;85.62;101196.16;5051841;28;20405;-84
2023/12/23 00:36:45;;;;;;;10.38;1.30;;;;;;;9.54;85.60;101201.47;5050723;28;20037;-84
2023/12/23 00:39:11;;;;;;;13.80;1.03;;;;;;;9.52;85.78;101195.25;5052050;28;20056;-83
2023/12/23 00:41:37;;;;;;;11.57;1.35;;;;;;;9.52;85.27;101196.16;5051958;28;20036;-83
2023/12/23 00:44:03;;;;;;;10.10;1.17;;;;;;;9.52;85.48;101200.53;5051559;28;20029;-83
2023/12/23 00:46:29;;;;;;;14.57;1.40;;;;;;;9.52;85.65;101195.25;5051464;28;20053;-84
2023/12/23 00:48:55;;;;;;;15.17;1.20;;;;;;;9.53;85.47;101197.06;5051512;28;20116;-83
2023/12/23 00:51:20;;;;;;;13.73;1.13;;;;;;;9.53;85.46;101191.81;5052092;28;20060;-82
2023/12/23 00:53:46;;;;;;;11.13;1.30;;;;;;;9.52;85.61;101190.91;5051715;28;20110;-83
2023/12/23 00:56:11;;;;;;;11.87;1.30;;;;;;;9.51;85.71;101188.25;5052127;28;20037;-84
2023/12/23 00:58:37;;;;;;;14.87;1.40;;;;;;;9.53;85.43;101186.53;5051303;28;20029;-83
2023/12/23 01:01:02;;;;;;;12.13;1.10;;;;;;;9.52;85.27;101185.66;5051633;28;20025;-84
2023/12/23 01:03:28;;;;;;;10.73;1.27;;;;;;;9.52;85.34;101182.13;5051086;28;20033;-84
2023/12/23 01:05:54;;;;;;;13.33;1.40;;;;;;;9.49;85.50;101188.25;5051148;28;20090;-83
2023/12/23 01:08:19;;;;;;;11.40;1.00;;;;;;;9.48;85.40;101189.97;5051280;28;20025;-83
2023/12/23 01:10:44;;;;;;;13.70;1.40;;;;;;;9.47;85.81;101180.31;5051301;28;20482;-83
2023/12/23 01:13:10;;;;;;;14.23;1.57;;;;;;;9.46;85.77;101186.44;5051665;28;20025;-83
2023/12/23 01:15:35;;;;;;;14.45;1.52;;;;;;;9.47;85.76;101182.06;5051062;28;20017;-84
2023/12/23 01:18:01;;;;;;;11.00;1.43;;;;;;;9.46;85.94;101180.31;5051139;28;20028;-83
2023/12/23 01:20:27;;;;;;;12.10;1.70;;;;;;;9.47;85.66;101176.81;5051293;28;20021;-83
2023/12/23 01:22:52;;;;;;;12.60;1.50;;;;;;;9.47;85.39;101176.81;5049804;28;20048;-84
2023/12/23 01:25:17;;;;;;;13.50;1.63;;;;;;;9.45;85.75;101175.91;5050930;28;20096;-84
2023/12/23 01:27:43;;;;;;;9.63;1.30;;;;;;;9.44;85.48;101164.50;5050749;28;20047;-83
2023/12/23 01:30:09;;;;;;;9.33;1.27;;;;;;;9.42;85.65;101171.47;5050680;28;20025;-83
2023/12/23 01:32:34;;;;;;;10.63;1.60;;;;;;;9.42;85.65;101174.09;5051063;28;20390;-83
2023/12/23 01:34:59;;;;;;;13.20;1.70;;;;;;;9.41;85.70;101172.34;5051113;28;20419;-83
2023/12/23 01:37:25;;;;;;;12.43;1.87;;;;;;;9.38;85.47;101174.94;5051081;28;20078;-83
2023/12/23 01:39:50;;;;;;;10.57;1.20;;;;;;;9.38;85.42;101180.19;5050879;28;20108;-83
2023/12/23 01:42:15;;;;;;;12.52;2.65;;;;;;;9.37;85.56;101181.03;5051411;28;20029;-83
2023/12/23 01:44:41;;;;;;;10.13;2.13;;;;;;;9.37;85.59;101183.66;5050460;28;20503;-83
2023/12/23 01:47:06;;;;;;;14.10;1.70;;;;;;;9.36;85.61;101179.28;5050640;28;20024;-83
2023/12/23 01:49:33;;;;;;;14.57;3.20;;;;;;;9.36;85.37;101183.63;5050567;28;20051;-83
2023/12/23 01:52:00;;;;;;;20.83;6.00;;;;;;;9.34;86.10;101181.00;5049571;28;20040;-83
2023/12/23 01:54:26;;;;;;;14.88;2.67;;;;;;;9.33;85.55;101179.22;5050717;28;20148;-83
2023/12/23 01:56:53;;;;;;;9.82;1.15;;;;;;;9.30;85.65;101179.19;5050565;28;20029;-83
2023/12/23 01:59:19;;;;;;;12.98;1.80;;;;;;;9.26;85.93;101179.97;5050153;28;20029;-83
2023/12/23 02:01:45;;;;;;;11.05;1.88;;;;;;;9.24;85.98;101182.59;5050428;28;20413;-83
2023/12/23 02:04:11;;;;;;;14.23;2.40;;;;;;;9.22;85.63;101181.69;5050465;28;20052;-83
2023/12/23 02:06:37;;;;;;;10.30;1.52;;;;;;;9.22;85.45;101183.41;5050238;28;20064;-83
2023/12/23 02:09:03;;;;;;;14.30;1.38;;;;;;;9.21;85.77;101182.53;5048907;28;20465;-84
2023/12/23 02:11:42;;;;;;;15.02;2.40;;;;;;;9.19;85.79;101182.50;5050296;28;20104;-83
2023/12/23 02:14:23;;;;;;;11.23;1.50;;;;;;;9.19;85.65;101182.50;5050029;28;20459;-83
2023/12/23 02:16:50;;;;;;;10.63;1.30;;;;;;;9.22;85.82;101196.56;5050347;28;20025;-83
2023/12/23 02:19:15;;;;;;;14.95;1.45;;;;;;;9.23;86.04;101188.72;5049573;28;20552;-84
2023/12/23 02:21:40;;;;;;;14.40;1.33;;;;;;;9.24;85.64;101185.22;5048803;28;20040;-83
2023/12/23 02:24:06;;;;;;;11.73;1.90;;;;;;;9.26;85.97;101182.59;5049688;28;20017;-83
2023/12/23 02:26:36;;;;;;;16.77;1.88;;;;;;;9.29;85.74;101187.94;5049663;28;20102;-83
2023/12/23 02:29:02;;;;;;;15.30;1.85;;;;;;;9.31;85.91;101180.97;5048264;28;20025;-83
2023/12/23 02:31:28;;;;;;;14.40;1.60;;;;;;;9.29;85.82;101180.06;5050351;28;20029;-83
2023/12/23 02:33:54;;;;;;;14.40;1.60;;;;;;;9.30;86.08;101173.94;5050007;28;20489;-84
2023/12/23 02:36:23;;;;;;;11.20;1.73;;;;;;;9.31;85.64;101175.69;5050023;28;20100;-83
2023/12/23 02:38:48;;;;;;;13.55;1.90;;;;;;;9.31;86.00;101176.56;5049885;28;20474;-83
2023/12/23 02:41:14;;;;;;;11.13;1.37;;;;;;;9.32;85.96;101177.47;5049723;28;20054;-83
2023/12/23 02:43:39;;;;;;;10.97;1.33;;;;;;;9.33;85.91;101174.84;5049381;28;20021;-83
2023/12/23 02:46:05;;;;;;;12.77;1.83;;;;;;;9.35;85.75;101177.50;5049548;28;20388;-85
2023/12/23 02:48:30;;;;;;;10.23;1.50;;;;;;;9.35;85.68;101174.88;5049522;28;20021;-83
2023/12/23 02:50:55;;;;;;;15.60;1.50;;;;;;;9.34;85.76;101173.13;5049980;28;20473;-83
2023/12/23 02:53:21;;;;;;;12.33;1.37;;;;;;;9.35;85.70;101174.88;5049708;28;20033;-83
2023/12/23 02:55:46;;;;;;;9.33;1.23;;;;;;;9.36;85.94;101174.03;5049326;28;20025;-83
2023/12/23 02:58:11;;;;;;;10.65;1.40;;;;;;;9.39;86.05;101174.06;5049702;28;20025;-83
2023/12/23 03:00:37;;;;;;;14.23;1.63;;;;;;;9.38;85.52;101177.56;5049326;28;20029;-83
2023/12/23 03:03:02;;;;;;;13.97;1.40;;;;;;;9.37;85.75;101181.03;5049565;28;20481;-83
2023/12/23 03:05:28;;;;;;;11.68;1.48;;;;;;;9.36;86.05;101178.38;5048165;28;20099;-83
2023/12/23 03:07:53;;;;;;;15.10;1.40;;;;;;;9.36;85.81;101174.03;5049301;28;20029;-82
2023/12/23 03:10:19;;;;;;;8.90;0.80;;;;;;;9.37;86.13;101175.78;5048028;28;20450;-85
2023/12/23 03:12:44;;;;;;;12.47;1.40;;;;;;;9.38;86.04;101172.28;5049356;28;20203;-85
2023/12/23 03:15:10;;;;;;;10.60;1.43;;;;;;;9.38;85.61;101167.03;5049156;28;20260;-85
2023/12/23 03:17:35;;;;;;;9.37;1.10;;;;;;;9.40;85.97;101164.41;5049366;28;20381;-84
2023/12/23 03:20:01;;;;;;;9.37;1.00;;;;;;;9.40;85.97;101162.69;5049238;28;20100;-85
2023/12/23 03:22:26;;;;;;;7.93;1.17;;;;;;;9.39;86.01;101163.53;5049129;28;20108;-84
2023/12/23 03:24:52;;;;;;;12.37;1.50;;;;;;;9.40;85.75;101153.91;5047847;28;20108;-85
2023/12/23 03:27:18;;;;;;;9.83;1.30;;;;;;;9.40;85.66;101148.63;5047506;28;20482;-85
2023/12/23 03:29:44;;;;;;;11.57;1.20;;;;;;;9.40;85.71;101149.53;5050207;28;20112;-86
2023/12/23 03:32:10;;;;;;;12.30;1.38;;;;;;;9.40;85.70;101146.91;5053302;28;20059;-84
2023/12/23 03:34:35;;;;;;;15.60;1.23;;;;;;;9.41;85.98;101145.19;5053167;28;20036;-84
2023/12/23 03:37:01;;;;;;;14.87;1.40;;;;;;;9.41;85.86;101140.78;5053416;28;20021;-84
2023/12/23 03:39:27;;;;;;;14.55;1.30;;;;;;;9.42;85.94;101139.94;5053465;28;20116;-84
2023/12/23 03:41:52;;;;;;;13.48;1.13;;;;;;;9.42;85.89;101139.94;5053133;28;20033;-84
2023/12/23 03:44:18;;;;;;;14.60;1.57;;;;;;;9.42;85.76;101142.56;5052785;28;20274;-84
2023/12/23 03:46:43;;;;;;;14.57;1.47;;;;;;;9.41;85.83;101138.16;5053089;28;20404;-85
2023/12/23 03:49:08;;;;;;;10.20;1.00;;;;;;;9.40;85.95;101141.66;5052940;28;20090;-85
2023/12/23 03:51:34;;;;;;;15.77;1.40;;;;;;;9.38;85.58;101138.13;5052622;28;20033;-84
2023/12/23 03:53:59;;;;;;;12.45;1.38;;;;;;;9.37;85.58;101125.84;5053142;28;20029;-84
2023/12/23 03:56:25;;;;;;;11.20;1.53;;;;;;;9.34;85.57;101131.91;5053411;28;20078;-85
2023/12/23 03:58:50;;;;;;;9.17;1.60;;;;;;;9.36;85.96;101136.31;5052517;28;20082;-84
2023/12/23 04:01:17;;;;;;;12.03;1.10;;;;;;;9.34;85.78;101126.66;5053155;28;20050;-85
2023/12/23 04:03:43;;;;;;;11.70;1.53;;;;;;;9.33;85.55;101132.78;5052817;28;20350;-85
2023/12/23 04:06:11;;;;;;;11.00;1.35;;;;;;;9.32;85.62;101130.16;5052688;28;20049;-85
2023/12/23 04:08:37;;;;;;;13.30;1.45;;;;;;;9.31;85.80;101124.00;5052551;28;20517;-84
2023/12/23 04:11:03;;;;;;;7.90;1.20;;;;;;;9.30;85.74;101116.09;5052608;28;20049;-84
2023/12/23 04:13:29;;;;;;;11.53;1.00;;;;;;;9.30;85.80;101114.34;5052590;28;20052;-84
2023/12/23 04:15:54;;;;;;;10.55;1.20;;;;;;;9.29;85.81;101112.56;5053635;28;20271;-86
2023/12/23 04:18:20;;;;;;;12.47;1.40;;;;;;;9.27;85.78;101106.41;5051677;28;20443;-84
2023/12/23 04:20:46;;;;;;;11.82;1.15;;;;;;;9.26;85.21;101103.75;5052622;28;20025;-85
2023/12/23 04:23:11;;;;;;;14.53;1.40;;;;;;;9.25;85.87;101102.00;5052412;28;20033;-85
2023/12/23 04:25:37;;;;;;;17.13;1.57;;;;;;;9.25;85.48;101107.25;5051470;28;20029;-85
2023/12/23 04:28:03;;;;;;;12.85;1.25;;;;;;;9.24;85.49;101110.72;5052302;28;20098;-84
2023/12/23 04:30:28;;;;;;;7.75;1.25;;;;;;;9.21;85.55;101106.34;5051985;28;20060;-84
2023/12/23 04:32:53;;;;;;;17.80;2.23;;;;;;;9.20;85.48;101101.94;5052333;28;20507;-84
2023/12/23 04:35:19;;;;;;;11.63;1.83;;;;;;;9.16;85.61;101103.63;5052350;28;20025;-84
2023/12/23 04:37:45;;;;;;;12.83;1.40;;;;;;;9.15;85.89;101098.34;5052035;28;20029;-84
2023/12/23 04:40:11;;;;;;;13.57;1.17;;;;;;;9.11;85.91;101099.16;5052620;28;20659;-84
2023/12/23 04:42:36;;;;;;;12.67;1.20;;;;;;;9.08;85.58;101097.38;5051818;28;20103;-85
2023/12/23 04:45:02;;;;;;;11.55;1.80;;;;;;;9.07;85.61;101099.97;5051695;28;20032;-84
2023/12/23 04:47:27;;;;;;;14.33;1.20;;;;;;;9.03;85.69;101104.28;5051375;28;20513;-85
2023/12/23 04:49:53;;;;;;;21.58;1.48;;;;;;;9.05;85.48;101102.59;5051648;28;20037;-85
2023/12/23 04:52:18;;;;;;;13.07;1.53;;;;;;;9.04;86.04;101103.41;5050464;28;20048;-84
2023/12/23 04:54:43;;;;;;;10.90;1.30;;;;;;;9.03;85.86;101101.66;5051844;28;20049;-84
2023/12/23 04:57:09;;;;;;;13.67;1.57;;;;;;;9.02;86.25;101106.03;5051919;28;20032;-84
2023/12/23 04:59:34;;;;;;;10.27;0.80;;;;;;;9.02;86.00;101105.13;5051480;28;20032;-85
2023/12/23 05:01:59;;;;;;;16.70;1.10;;;;;;;9.03;86.17;101112.16;5051583;28;20048;-84
2023/12/23 05:04:25;;;;;;;14.07;1.70;;;;;;;9.03;86.36;101117.41;5051563;28;20271;-85
2023/12/23 05:06:50;;;;;;;9.57;0.90;;;;;;;9.06;86.09;101120.13;5050017;28;20115;-84
2023/12/23 05:09:16;;;;;;;10.03;1.17;;;;;;;9.07;86.22;101108.75;5051296;28;20039;-84
2023/12/23 05:11:41;;;;;;;10.23;1.30;;;;;;;9.09;85.81;101114.91;5051261;28;20458;-84
2023/12/23 05:14:07;;;;;;;7.07;0.80;;;;;;;9.13;85.80;101113.19;5051165;28;20026;-84
2023/12/23 05:16:32;;;;;;;10.30;1.07;;;;;;;9.13;85.88;101108.84;5051218;28;20017;-85
2023/12/23 05:18:57;;;;;;;12.57;1.13;;;;;;;9.15;85.87;101115.00;5051357;28;20104;-85
2023/12/23 05:21:23;;;;;;;7.47;1.10;;;;;;;9.16;86.20;101114.13;5051677;28;20484;-84
2023/12/23 05:23:48;;;;;;;9.33;1.70;;;;;;;9.17;85.89;101110.66;5050708;28;20100;-85
2023/12/23 05:26:19;;;;;;;11.37;1.07;;;;;;;9.18;86.13;101112.41;5050956;28;20513;-84
2023/12/23 05:28:45;;;;;;;10.27;1.38;;;;;;;9.18;86.00;101107.16;5050569;28;20025;-84
2023/12/23 05:31:10;;;;;;;10.93;1.03;;;;;;;9.21;86.29;101115.94;5051227;28;20163;-84
2023/12/23 05:33:35;;;;;;;11.90;1.50;;;;;;;9.23;85.76;101119.47;5050994;28;20032;-84
2023/12/23 05:36:01;;;;;;;13.13;1.10;;;;;;;9.25;85.94;101116.03;5050960;28;20318;-84
2023/12/23 05:38:26;;;;;;;11.07;1.02;;;;;;;9.26;86.17;101114.25;5050904;28;20398;-84
2023/12/23 05:40:52;;;;;;;8.87;0.93;;;;;;;9.26;85.96;101122.16;5050834;28;20036;-84
2023/12/23 05:43:17;;;;;;;8.97;1.07;;;;;;;9.27;86.14;101121.28;5050499;28;20459;-84
2023/12/23 05:45:43;;;;;;;7.50;1.13;;;;;;;9.26;85.99;101120.41;5050222;28;20029;-84
2023/12/23 05:48:08;;;;;;;6.77;0.90;;;;;;;9.27;86.36;101123.91;5050619;28;20442;-84
2023/12/23 05:50:33;;;;;;;12.18;1.35;;;;;;;9.28;86.12;101123.97;5050627;28;20037;-84
2023/12/23 05:52:59;;;;;;;7.97;1.20;;;;;;;9.28;86.24;101129.22;5049632;28;20032;-84
2023/12/23 05:55:24;;;;;;;10.13;0.93;;;;;;;9.29;86.58;101120.47;5050770;28;20068;-85
2023/12/23 05:57:50;;;;;;;14.53;1.27;;;;;;;9.28;86.47;101125.69;5050675;28;20211;-84
2023/12/23 06:00:16;;;;;;;9.77;1.20;;;;;;;9.28;86.49;101128.31;5050290;28;20025;-84
2023/12/23 06:02:41;;;;;;;10.90;1.50;;;;;;;9.27;86.45;101131.81;5050660;28;20039;-84
2023/12/23 06:05:06;;;;;;;10.30;1.47;;;;;;;9.29;86.60;101125.72;5050433;28;20028;-84
2023/12/23 06:07:34;;;;;;;9.17;1.60;;;;;;;9.28;86.45;101128.31;5050266;28;20768;-84
2023/12/23 06:09:59;;;;;;;9.35;1.90;;;;;;;9.29;86.47;101122.22;5050471;28;20025;-85
2023/12/23 06:12:25;;;;;;;15.57;1.80;;;;;;;9.27;86.60;101116.94;5050333;28;20398;-84
2023/12/23 06:14:50;;;;;;;10.93;1.43;;;;;;;9.27;86.63;101123.91;5050032;28;20485;-84
2023/12/23 06:17:16;;;;;;;10.80;1.70;;;;;;;9.29;86.87;101124.84;5050418;28;20032;-84
2023/12/23 06:19:41;;;;;;;8.52;1.20;;;;;;;9.28;86.67;101120.44;5050258;28;20027;-84
2023/12/23 06:22:07;;;;;;;8.47;1.30;;;;;;;9.27;86.51;101121.28;5049857;28;20036;-85
2023/12/23 06:24:40;;;;;;;15.25;1.35;;;;;;;9.26;86.49;101127.41;5068130;27;1354574;-84
2023/12/23 06:27:05;;;;;;;12.37;1.30;;;;;;;9.27;86.62;101118.66;5088236;28;20032;-84
2023/12/23 06:29:31;;;;;;;9.77;1.40;;;;;;;9.27;86.75;101121.28;5086443;28;20213;-84
2023/12/23 06:32:00;;;;;;;12.10;1.40;;;;;;;9.26;86.66;101119.53;5087144;28;20095;-84
2023/12/23 06:34:25;;;;;;;10.00;1.40;;;;;;;9.26;86.67;101120.41;5087053;28;20028;-84
2023/12/23 06:36:50;;;;;;;10.20;1.45;;;;;;;9.27;86.52;101134.44;5086953;28;20024;-84
2023/12/23 06:39:16;;;;;;;13.47;1.27;;;;;;;9.27;86.74;101137.06;5083112;28;20107;-83
2023/12/23 06:41:41;;;;;;;8.27;1.37;;;;;;;9.26;86.93;101128.31;5083562;28;20075;-84
2023/12/23 06:44:07;;;;;;;9.50;1.30;;;;;;;9.27;86.95;101131.81;5086234;28;20024;-83
2023/12/23 06:46:32;;;;;;;8.52;1.75;;;;;;;9.28;86.89;101133.56;5086672;28;20388;-83
2023/12/23 06:48:58;;;;;;;10.53;1.77;;;;;;;9.26;86.84;101141.44;5085470;28;20039;-84
2023/12/23 06:51:23;;;;;;;7.87;1.30;;;;;;;9.26;86.84;101136.19;5086504;28;20097;-84
2023/12/23 06:53:49;;;;;;;12.47;1.40;;;;;;;9.25;86.78;101144.03;5086581;28;20060;-84
2023/12/23 06:56:14;;;;;;;11.13;1.95;;;;;;;9.24;86.89;101155.41;5086597;28;20461;-83
2023/12/23 06:58:40;;;;;;;10.83;1.40;;;;;;;9.25;86.69;101149.28;5086406;28;20089;-84
2023/12/23 07:01:05;;;;;;;16.30;1.53;;;;;;;9.24;87.17;101147.53;5086554;28;20059;-84
2023/12/23 07:03:31;;;;;;;12.15;1.33;;;;;;;9.22;87.46;101151.88;5086338;28;20070;-84
2023/12/23 07:05:57;;;;;;;9.37;1.43;;;;;;;9.21;87.23;101148.38;5086476;28;20040;-84
2023/12/23 07:08:22;;;;;;;9.40;1.33;;;;;;;9.22;87.30;101149.25;5085911;28;20032;-84
2023/12/23 07:10:48;;;;;;;10.37;1.60;;;;;;;9.22;87.32;101144.00;5086222;28;20028;-84
2023/12/23 07:13:13;;;;;;;14.70;1.47;;;;;;;9.21;87.21;101145.75;5086356;28;20052;-84
2023/12/23 07:15:38;;;;;;;12.43;2.00;;;;;;;9.20;87.17;101151.88;5085818;28;20027;-84
2023/12/23 07:18:04;;;;;;;7.57;1.00;;;;;;;9.21;87.45;101158.00;5086340;28;20024;-85
2023/12/23 07:20:30;;;;;;;14.57;1.63;;;;;;;9.21;87.08;101152.75;5090653;28;20026;-84
2023/12/23 07:22:55;;;;;;;10.95;1.40;;;;;;;9.21;87.12;101153.63;5111880;28;20043;-84
2023/12/23 07:25:21;;;;;;;10.73;1.57;;;;;;;9.22;87.14;101159.75;5121555;28;20076;-84
2023/12/23 07:27:46;;;;;;;13.93;1.53;;;;;;;9.22;87.45;101160.66;5106382;28;20032;-83
2023/12/23 07:30:14;;;;;;;10.27;1.33;;;;;;;9.21;87.75;101161.53;5106309;28;20016;-84
2023/12/23 07:32:40;;;;;;;14.02;1.25;;;;;;;9.21;87.63;101158.91;5106124;28;20038;-84
2023/12/23 07:35:06;;;;;;;11.43;1.87;;;;;;;9.22;87.36;101167.66;5097902;28;20024;-83
2023/12/23 07:37:31;;;;;;;11.13;1.67;;;;;;;9.23;87.40;101166.78;5092337;28;20061;-84
2023/12/23 07:39:57;;;;;;;11.50;2.23;;;;;;;9.22;87.61;101180.78;5092404;28;20056;-84
2023/12/23 07:42:22;;;;;;;15.10;1.70;;;;;;;9.24;87.55;101179.06;5092441;28;20502;-83
2023/12/23 07:44:47;;;;;;;12.60;1.70;;;;;;;9.24;87.76;101179.06;5092129;28;20030;-84
2023/12/23 07:47:13;;;;;;;12.93;1.67;;;;;;;9.25;87.48;101180.84;5092326;28;20025;-85
2023/12/23 07:49:38;;;;;;;11.57;1.53;;;;;;;9.26;87.50;101177.34;5092146;28;20016;-83
2023/12/23 07:52:05;;;;;;;11.18;2.00;;;;;;;9.26;87.55;101174.72;5092091;28;20024;-83
2023/12/23 07:54:30;;;;;;;10.02;1.60;;;;;;;9.28;87.77;101180.88;5073975;28;20399;-84
2023/12/23 07:56:56;;;;;;;15.20;2.03;;;;;;;9.29;87.69;101177.41;5092420;28;20020;-84
2023/12/23 07:59:21;;;;;;;8.07;1.00;;;;;;;9.30;87.74;101179.19;5091942;28;20101;-84
2023/12/23 08:01:47;;;;;;;13.33;1.63;;;;;;;9.32;87.64;101182.72;5092149;28;20116;-83
2023/12/23 08:04:13;;;;;;;10.05;1.30;;;;;;;9.33;87.42;101181.84;5091795;28;20347;-83
2023/12/23 08:06:39;;;;;;;7.93;1.30;;;;;;;9.34;87.49;101175.75;5091887;28;20107;-83
2023/12/23 08:09:04;;;;;;;9.88;1.20;;;;;;;9.36;87.74;101179.28;5091828;28;20077;-83
2023/12/23 08:11:30;;;;;;;5.90;1.40;;;;;;;9.39;87.73;101184.56;5091731;28;20028;-83
2023/12/23 08:13:55;;;;;;;6.27;1.30;;;;;;;9.39;87.52;101183.69;5091532;28;20031;-83
2023/12/23 08:16:21;;;;;;;11.73;1.50;;;;;;;9.40;87.69;101186.34;5091948;28;20095;-83
2023/12/23 08:18:46;;;;;;;6.73;1.13;;;;;;;9.40;87.68;101182.81;5091578;28;20031;-83
2023/12/23 08:21:12;;;;;;;10.20;1.50;;;;;;;9.42;87.67;101189.00;5102243;28;20024;-83
2023/12/23 08:23:37;;;;;;;9.05;1.30;;;;;;;9.44;87.89;101187.28;5110859;28;20047;-83
2023/12/23 08:26:03;;;;;;;7.30;1.20;;;;;;;9.44;88.03;101177.63;5101513;28;20038;-83
2023/12/23 08:28:29;;;;;;;6.32;1.10;;;;;;;9.47;87.92;101187.34;5091075;28;20028;-83
2023/12/23 08:30:54;;;;;;;7.80;1.80;;;;;;;9.50;87.84;101192.63;5091488;28;20035;-83
2023/12/23 08:33:19;;;;;;;9.33;2.30;;;;;;;9.52;88.14;101192.63;5091163;28;20028;-83
2023/12/23 08:35:45;;;;;;;8.37;1.80;;;;;;;9.54;88.02;101193.56;5091243;28;20034;-84
2023/12/23 08:38:11;;;;;;;11.07;1.83;;;;;;;9.55;87.70;101205.84;5091577;28;20032;-83
2023/12/23 08:40:36;;;;;;;12.03;3.10;;;;;;;9.56;87.83;101203.22;5073189;28;20043;-83
2023/12/23 08:43:02;;;;;;;15.27;3.50;;;;;;;9.57;88.10;101204.13;5072848;28;20028;-83
2023/12/23 08:45:27;;;;;;;15.07;2.80;;;;;;;9.59;87.96;101205.03;5090585;28;20107;-84
2023/12/23 08:47:55;;;;;;;10.63;2.03;;;;;;;9.59;87.75;101205.03;5090647;28;20035;-84
2023/12/23 08:50:22;;;;;;;14.43;2.90;;;;;;;9.60;88.11;101204.19;5090973;28;20028;-83
2023/12/23 08:52:48;;;;;;;7.50;2.30;;;;;;;9.62;87.69;101202.44;5091232;28;20403;-84
2023/12/23 08:55:13;;;;;;;14.53;1.80;;;;;;;9.62;88.28;101205.09;5091123;28;20032;-83
2023/12/23 08:57:40;;;;;;;8.03;1.30;;;;;;;9.63;87.75;101204.22;5091240;28;20301;-83
2023/12/23 09:00:06;;;;;;;8.38;1.35;;;;;;;9.66;87.78;101209.53;5090518;28;20020;-85
2023/12/23 09:02:32;;;;;;;9.67;1.47;;;;;;;9.67;87.73;101213.91;5090729;28;20032;-83
2023/12/23 09:04:57;;;;;;;7.05;1.42;;;;;;;9.71;88.05;101210.47;5091037;28;20057;-83
2023/12/23 09:07:23;;;;;;;9.30;1.87;;;;;;;9.74;88.24;101209.63;5090644;28;20024;-84
2023/12/23 09:09:48;;;;;;;7.30;1.30;;;;;;;9.76;88.10;101216.66;5090723;28;20036;-83
2023/12/23 09:12:14;;;;;;;5.40;1.43;;;;;;;9.79;87.80;101218.47;5090927;28;20027;-83
2023/12/23 09:14:39;;;;;;;7.93;1.17;;;;;;;9.80;87.81;101211.47;5090255;28;20023;-83
2023/12/23 09:17:06;;;;;;;8.20;0.90;;;;;;;9.83;87.32;101224.69;5090623;28;20028;-83
2023/12/23 09:19:31;;;;;;;6.68;1.00;;;;;;;9.85;87.94;101221.19;5090724;28;20085;-83
2023/12/23 09:21:57;;;;;;;7.57;1.13;;;;;;;9.87;87.90;101221.22;5107473;28;20023;-83
2023/12/23 09:24:22;;;;;;;5.77;0.90;;;;;;;9.90;88.00;101226.53;5109335;28;20050;-83
2023/12/23 09:26:48;;;;;;;7.07;1.17;;;;;;;9.90;87.83;101224.78;5093908;28;20024;-84
2023/12/23 09:29:13;;;;;;;9.67;1.30;;;;;;;9.92;88.14;101222.16;5089410;28;20028;-84
2023/12/23 09:31:39;;;;;;;5.47;1.10;;;;;;;9.93;87.75;101220.44;5090268;28;20024;-83
2023/12/23 09:34:04;;;;;;;7.83;1.10;;;;;;;9.94;87.79;101225.69;5090387;28;20103;-84
2023/12/23 09:36:29;;;;;;;7.32;1.50;;;;;;;9.96;87.80;101223.97;5090413;28;20459;-84
2023/12/23 09:38:55;;;;;;;7.70;1.23;;;;;;;10.02;87.66;101229.34;5090292;28;20035;-83
2023/12/23 09:41:21;;;;;;;7.77;0.90;;;;;;;10.10;87.72;101234.69;5090329;28;20059;-83
2023/12/23 09:43:49;;;;;;;4.00;0.95;;;;;;;10.19;87.49;101231.28;5089841;28;20472;-83
2023/12/23 09:46:16;;;;;;;5.22;1.20;;;;;;;10.29;87.60;101227.94;5090014;28;20081;-84
2023/12/23 09:48:42;;;;;;;4.97;0.90;;;;;;;10.40;87.11;101228.09;5089949;28;20035;-84
2023/12/23 09:51:08;;;;;;;3.63;0.50;;;;;;;10.46;86.65;101235.16;5090311;28;20028;-84
2023/12/23 09:53:37;;;;;;;6.57;0.70;;;;;;;10.52;86.68;101240.53;5089759;28;20130;-83
2023/12/23 09:56:04;;;;;;;4.07;0.60;;;;;;;10.52;86.21;101232.63;5071625;28;20036;-84
2023/12/23 09:58:29;;;;;;;5.13;0.70;;;;;;;10.56;85.77;101226.53;5089717;28;20056;-84
2023/12/23 10:00:55;;;;;;;4.80;0.63;;;;;;;10.60;85.91;101228.31;5089297;28;20100;-84
2023/12/23 10:03:24;;;;;;;2.37;0.40;;;;;;;10.65;85.93;101224.84;5089776;28;20054;-85
2023/12/23 10:05:51;;;;;;;4.65;0.73;;;;;;;10.70;85.70;101224.06;5089856;28;20214;-83
2023/12/23 10:08:17;;;;;;;4.00;0.70;;;;;;;10.77;85.89;101217.09;5089914;28;20035;-84
2023/12/23 10:10:43;;;;;;;4.00;0.47;;;;;;;10.83;85.25;101222.44;5071430;28;20032;-83
2023/12/23 10:13:09;;;;;;;2.60;0.50;;;;;;;10.84;84.90;101221.56;5089650;28;20032;-84
2023/12/23 10:15:34;;;;;;;3.60;0.57;;;;;;;10.80;85.04;101216.22;5089204;28;20036;-83
2023/12/23 10:18:04;;;;;;;5.20;0.83;;;;;;;10.80;84.96;101222.41;5089592;28;20032;-83
2023/12/23 10:20:29;;;;;;;6.20;0.60;;;;;;;10.79;85.01;101219.72;5094195;28;20035;-84
2023/12/23 10:22:55;;;;;;;3.30;0.50;;;;;;;10.77;84.49;101219.72;5109553;28;20043;-83
2023/12/23 10:25:20;;;;;;;5.07;0.50;;;;;;;10.77;84.75;101209.19;5097209;28;20107;-84
2023/12/23 10:27:50;;;;;;;4.47;0.60;;;;;;;10.75;84.78;101208.31;5089429;28;20030;-84
2023/12/23 10:30:16;;;;;;;3.10;0.60;;;;;;;10.73;84.70;101205.63;5088912;28;20070;-84
2023/12/23 10:32:45;;;;;;;4.53;0.55;;;;;;;10.71;84.58;101199.47;5089445;28;20043;-83
2023/12/23 10:35:15;;;;;;;3.08;0.40;;;;;;;10.67;84.30;101207.31;5089481;28;20028;-84
2023/12/23 10:37:42;;;;;;;4.18;0.60;;;;;;;10.64;84.89;101213.44;5089431;28;20391;-84
2023/12/23 10:40:16;;;;;;;5.25;0.70;;;;;;;10.67;85.02;101196.78;5089545;28;20039;-83
2023/12/23 10:42:42;;;;;;;5.90;0.50;;;;;;;10.75;85.26;101197.75;5089240;28;20028;-84
2023/12/23 10:45:10;;;;;;;3.78;0.50;;;;;;;10.83;85.68;101195.19;5089046;28;20055;-83
2023/12/23 10:47:36;;;;;;;4.07;0.50;;;;;;;10.96;85.21;101194.44;5089335;28;20545;-83
2023/12/23 10:50:04;;;;;;;5.32;0.70;;;;;;;11.05;85.07;101183.97;5089340;28;20316;-83
2023/12/23 10:52:30;;;;;;;4.35;0.85;;;;;;;11.17;85.00;101185.81;5089110;28;20119;-84
2023/12/23 10:54:55;;;;;;;2.70;0.70;;;;;;;11.24;84.40;101183.25;5071097;28;20028;-83
2023/12/23 10:57:22;;;;;;;2.90;0.40;;;;;;;11.30;83.81;101183.31;5089458;28;20035;-83
2023/12/23 10:59:47;;;;;;;3.92;0.60;;;;;;;11.30;83.09;101183.31;5088929;28;20555;-83
2023/12/23 11:02:18;;;;;;;5.13;0.50;;;;;;;11.27;83.37;101176.25;5089535;28;20119;-83
2023/12/23 11:04:50;;;;;;;5.72;0.80;;;;;;;11.23;83.07;101181.50;5089273;28;20285;-84
2023/12/23 11:07:17;;;;;;;4.00;0.70;;;;;;;11.20;83.26;101179.72;5088980;28;20059;-83
2023/12/23 11:09:47;;;;;;;4.70;0.52;;;;;;;11.15;83.32;101174.38;5089751;28;20032;-84
2023/12/23 11:12:14;;;;;;;4.05;0.80;;;;;;;11.14;83.62;101170.00;5074367;28;20032;-84
2023/12/23 11:14:40;;;;;;;4.32;0.60;;;;;;;11.11;83.14;101164.69;5092465;28;20028;-85
2023/12/23 11:17:30;;;;;;;2.37;0.50;;;;;;;11.06;82.89;101161.16;5093065;28;20039;-83
2023/12/23 11:19:59;;;;;;;2.88;0.50;;;;;;;11.07;83.29;101165.53;5092669;28;20036;-82